Lleida, Spain

7:33 AM CET on November 01, 2014 (GMT +0100)
ILLEIDAA3 | Change Station
CLOSE
Current Station
Personal Weather Station
Location: Alcarras, Cataluņa
Elevation: 443 ft
Nearby Weather Stations

Elev 443 ft 41.56 °N, 0.53 °E | Updated 9 seconds ago

Overcast
Overcast
52.7 °F
Feels Like 52.7 °F
N
0.0
Wind Variable Wind from ENE
Gusts 0.0 mph

Today
High -- | Low -- °F
--% Chance of Precip.
Yesterday
High -- | Low -- °F
Precip. -- in
7:29 AM 5:52 PM
Waxing Gibbous, 63% visible
Pressure 30.21 in
Visibility 4.3 miles
Clouds Mostly Cloudy 2000 ft
Mostly Cloudy 2500 ft
Overcast 3400 ft
Dew Point 52 °F
Humidity 98%
Rainfall 0.00 in
Snow Depth Not available.
UV 0 out of 12
Pollen Not available.
Air Quality Not available.
Flu Activity Not available.
METAR LERS 010600Z AUTO 03003KT 7000 // BKN020/// BKN025/// OVC034/// 17/16 Q1023

More Conditions Fewer Conditions

Pressure 30.21 in
Visibility 4.3 miles
Clouds Mostly Cloudy 2000 ft
Mostly Cloudy 2500 ft
Overcast 3400 ft
Dew Point 52 °F
Humidity 98%
Rainfall 0.00 in
Snow Depth Not available.
UV 0 out of 12
Pollen Not available.
Air Quality Not available.
Flu Activity Not available.
METAR LERS 010600Z AUTO 03003KT 7000 // BKN020/// BKN025/// OVC034/// 17/16 Q1023

More Conditions Fewer Conditions

10-Day Weather Forecast

Almanac

Astronomy

Nov. 01, 2014 Rise Set
Actual Time
Civil Twilight
Nautical Twilight
Astronomical Twilight
Moon
Length Of Visible Light
Length of Day
Tomorrow will be .
, % of the Moon is Illuminated

Today's Extremes

Country Highs Country Lows

Community

WunderPhotos

Upload Photos

1,766,866 photos uploaded!

WunderBlogs® & News

Nearby

Air Quality

  Air Quality AQ Index Pollutant
Not available.

Snow Depth

Station Depth Elevation

Earthquake Activity

City Distance Mag. Time & Date
Minimum magnitude displayed is 2.5.

Coastal Water Temperatures

Place Temperature

Nearby Weather Stations